BLK51 ZSNJ-ZSSS
Flight info
| Callsign | BLK51 |
|---|---|
| Flight time | 0h 33m |
| Altitude | 16700 |
| Route | ESB61X ESBAG R343 PK |
| Aircraft | E135/M-SABDFGRW/S |
Departure
| Time | 2026-04-30 05:45 |
|---|---|
| Airport | Nanjing Lukou International Airport (ZSNJ) |
Arrival
| Time | 2026-04-30 06:18 |
|---|---|
| Airport | Shanghai Hongqiao International Airport (ZSSS) |
| Time | Latitude | Longitude | Altitude | Speed | Heading |
|---|---|---|---|---|---|
| 2026-04-30 05:17 | 31.73609 | 118.86080 | 55 ft | 0 kts | 69° |
| 2026-04-30 05:33 | 31.73605 | 118.86070 | 55 ft | 1 kts | 69° |
| 2026-04-30 05:34 | 31.73599 | 118.86054 | 55 ft | 2 kts | 53° |
| 2026-04-30 05:34 | 31.73588 | 118.86041 | 55 ft | 2 kts | 37° |
| 2026-04-30 05:34 | 31.73575 | 118.86031 | 55 ft | 2 kts | 21° |
| 2026-04-30 05:34 | 31.73560 | 118.86028 | 55 ft | 2 kts | 5° |
| 2026-04-30 05:35 | 31.73545 | 118.86028 | 55 ft | 2 kts | 348° |
| 2026-04-30 05:35 | 31.73531 | 118.86033 | 55 ft | 2 kts | 332° |
| 2026-04-30 05:35 | 31.73525 | 118.86037 | 55 ft | 0 kts | 328° |
| 2026-04-30 05:38 | 31.73526 | 118.86036 | 55 ft | 0 kts | 328° |
| 2026-04-30 05:39 | 31.73539 | 118.86026 | 55 ft | 3 kts | 328° |
| 2026-04-30 05:39 | 31.73568 | 118.86005 | 55 ft | 6 kts | 328° |
| 2026-04-30 05:39 | 31.73613 | 118.85973 | 55 ft | 8 kts | 329° |
| 2026-04-30 05:39 | 31.73672 | 118.85930 | 55 ft | 11 kts | 328° |
| 2026-04-30 05:40 | 31.73754 | 118.85871 | 55 ft | 16 kts | 329° |
| 2026-04-30 05:40 | 31.73778 | 118.85765 | 55 ft | 17 kts | 232° |
| 2026-04-30 05:40 | 31.73708 | 118.85639 | 55 ft | 19 kts | 238° |
| 2026-04-30 05:40 | 31.73633 | 118.85500 | 55 ft | 21 kts | 238° |
| 2026-04-30 05:41 | 31.73550 | 118.85345 | 55 ft | 23 kts | 238° |
| 2026-04-30 05:41 | 31.73461 | 118.85176 | 55 ft | 24 kts | 239° |
| 2026-04-30 05:41 | 31.73366 | 118.84999 | 55 ft | 26 kts | 237° |
| 2026-04-30 05:41 | 31.73267 | 118.84810 | 55 ft | 26 kts | 238° |
| 2026-04-30 05:42 | 31.73233 | 118.84698 | 55 ft | 4 kts | 298° |
| 2026-04-30 05:42 | 31.73240 | 118.84689 | 55 ft | 1 kts | 326° |
| 2026-04-30 05:42 | 31.73250 | 118.84682 | 55 ft | 0 kts | 327° |
| 2026-04-30 05:43 | 31.73262 | 118.84673 | 55 ft | 3 kts | 327° |
| 2026-04-30 05:43 | 31.73292 | 118.84651 | 55 ft | 7 kts | 328° |
| 2026-04-30 05:43 | 31.73352 | 118.84621 | 55 ft | 12 kts | 4° |
| 2026-04-30 05:44 | 31.73424 | 118.84712 | 55 ft | 20 kts | 58° |
| 2026-04-30 05:44 | 31.73610 | 118.85058 | 55 ft | 88 kts | 58° |
| 2026-04-30 05:44 | 31.74063 | 118.85911 | 75 ft | 148 kts | 58° |
| 2026-04-30 05:44 | 31.74631 | 118.86988 | 616 ft | 159 kts | 58° |
| 2026-04-30 05:45 | 31.75202 | 118.88078 | 1460 ft | 158 kts | 59° |
| 2026-04-30 05:45 | 31.75779 | 118.89218 | 2183 ft | 166 kts | 58° |
| 2026-04-30 05:45 | 31.76455 | 118.90387 | 2779 ft | 184 kts | 58° |
| 2026-04-30 05:45 | 31.77213 | 118.91783 | 3052 ft | 221 kts | 58° |
| 2026-04-30 05:46 | 31.78086 | 118.93430 | 3151 ft | 248 kts | 57° |
| 2026-04-30 05:46 | 31.79044 | 118.95222 | 3121 ft | 259 kts | 57° |
| 2026-04-30 05:46 | 31.79996 | 118.97033 | 3049 ft | 258 kts | 61° |
| 2026-04-30 05:46 | 31.80476 | 118.99052 | 3020 ft | 255 kts | 87° |
| 2026-04-30 05:47 | 31.80251 | 119.01135 | 3008 ft | 251 kts | 103° |
| 2026-04-30 05:47 | 31.79791 | 119.03108 | 2999 ft | 248 kts | 106° |
| 2026-04-30 05:47 | 31.79270 | 119.05090 | 3068 ft | 262 kts | 107° |
| 2026-04-30 05:47 | 31.78707 | 119.07165 | 4189 ft | 267 kts | 107° |
| 2026-04-30 05:48 | 31.78143 | 119.09226 | 5481 ft | 264 kts | 107° |
| 2026-04-30 05:48 | 31.77574 | 119.11307 | 6547 ft | 269 kts | 107° |
| 2026-04-30 05:48 | 31.76996 | 119.13412 | 7557 ft | 274 kts | 107° |
| 2026-04-30 05:48 | 31.76410 | 119.15550 | 8536 ft | 278 kts | 107° |
| 2026-04-30 05:49 | 31.76003 | 119.17030 | 9210 ft | 280 kts | 107° |
| 2026-04-30 05:49 | 31.75404 | 119.19215 | 10186 ft | 285 kts | 107° |
| 2026-04-30 05:49 | 31.74908 | 119.21495 | 11029 ft | 292 kts | 101° |
| 2026-04-30 05:49 | 31.74185 | 119.23828 | 11635 ft | 310 kts | 109° |
| 2026-04-30 05:50 | 31.73463 | 119.26283 | 12252 ft | 325 kts | 107° |
| 2026-04-30 05:50 | 31.72740 | 119.28871 | 12784 ft | 341 kts | 107° |
| 2026-04-30 05:50 | 31.71988 | 119.31580 | 13462 ft | 351 kts | 108° |
| 2026-04-30 05:50 | 31.71219 | 119.34353 | 14147 ft | 361 kts | 108° |
| 2026-04-30 05:51 | 31.70423 | 119.37220 | 14790 ft | 362 kts | 109° |
| 2026-04-30 05:51 | 31.69633 | 119.40063 | 14976 ft | 366 kts | 110° |
| 2026-04-30 05:51 | 31.68837 | 119.42922 | 14997 ft | 375 kts | 110° |
| 2026-04-30 05:51 | 31.68013 | 119.45883 | 14999 ft | 384 kts | 110° |
| 2026-04-30 05:52 | 31.67169 | 119.48911 | 14975 ft | 391 kts | 111° |
| 2026-04-30 05:52 | 31.66309 | 119.51996 | 14965 ft | 396 kts | 111° |
| 2026-04-30 05:52 | 31.65439 | 119.55111 | 14964 ft | 401 kts | 111° |
| 2026-04-30 05:52 | 31.64556 | 119.58272 | 14963 ft | 404 kts | 111° |
| 2026-04-30 05:53 | 31.63660 | 119.61472 | 14961 ft | 408 kts | 111° |
| 2026-04-30 05:53 | 31.62761 | 119.64684 | 14960 ft | 410 kts | 111° |
| 2026-04-30 05:53 | 31.62021 | 119.67974 | 14945 ft | 416 kts | 99° |
| 2026-04-30 05:53 | 31.61846 | 119.71339 | 14955 ft | 418 kts | 95° |
| 2026-04-30 05:54 | 31.61689 | 119.74785 | 14951 ft | 419 kts | 95° |
| 2026-04-30 05:54 | 31.61533 | 119.78207 | 14951 ft | 420 kts | 95° |
| 2026-04-30 05:54 | 31.61374 | 119.81660 | 14951 ft | 421 kts | 95° |
| 2026-04-30 05:54 | 31.61211 | 119.85144 | 14951 ft | 422 kts | 95° |
| 2026-04-30 05:55 | 31.61049 | 119.88617 | 14951 ft | 423 kts | 95° |
| 2026-04-30 05:55 | 31.60887 | 119.92082 | 14951 ft | 424 kts | 95° |
| 2026-04-30 05:55 | 31.60723 | 119.95545 | 14951 ft | 424 kts | 95° |
| 2026-04-30 05:55 | 31.60559 | 119.99002 | 14951 ft | 425 kts | 95° |
| 2026-04-30 05:56 | 31.60391 | 120.02523 | 14951 ft | 425 kts | 95° |
| 2026-04-30 05:56 | 31.60222 | 120.06009 | 14949 ft | 426 kts | 95° |
| 2026-04-30 05:56 | 31.60050 | 120.09526 | 14947 ft | 426 kts | 95° |
| 2026-04-30 05:56 | 31.59878 | 120.13046 | 14944 ft | 427 kts | 95° |
| 2026-04-30 05:57 | 31.59706 | 120.16573 | 14942 ft | 427 kts | 95° |
| 2026-04-30 05:57 | 31.59533 | 120.20081 | 14941 ft | 427 kts | 95° |
| 2026-04-30 05:57 | 31.59359 | 120.23621 | 14940 ft | 428 kts | 95° |
| 2026-04-30 05:57 | 31.59184 | 120.27124 | 14940 ft | 428 kts | 95° |
| 2026-04-30 05:58 | 31.58999 | 120.30654 | 14940 ft | 427 kts | 97° |
| 2026-04-30 05:58 | 31.58310 | 120.34055 | 14947 ft | 422 kts | 112° |
| 2026-04-30 05:58 | 31.57330 | 120.37347 | 14608 ft | 432 kts | 112° |
| 2026-04-30 05:58 | 31.56323 | 120.40741 | 14147 ft | 438 kts | 112° |
| 2026-04-30 05:59 | 31.55335 | 120.44072 | 13656 ft | 417 kts | 112° |
| 2026-04-30 05:59 | 31.54387 | 120.47251 | 13160 ft | 399 kts | 112° |
| 2026-04-30 05:59 | 31.53475 | 120.50302 | 12664 ft | 385 kts | 112° |
| 2026-04-30 05:59 | 31.52598 | 120.53241 | 12172 ft | 373 kts | 112° |
| 2026-04-30 06:00 | 31.51741 | 120.56110 | 11684 ft | 362 kts | 112° |
| 2026-04-30 06:00 | 31.50916 | 120.58864 | 11256 ft | 351 kts | 112° |
| 2026-04-30 06:00 | 31.50114 | 120.61540 | 10879 ft | 340 kts | 111° |
| 2026-04-30 06:00 | 31.49328 | 120.64159 | 10542 ft | 330 kts | 111° |
| 2026-04-30 06:01 | 31.48572 | 120.66676 | 10247 ft | 319 kts | 111° |
| 2026-04-30 06:01 | 31.47849 | 120.69085 | 9985 ft | 309 kts | 111° |
| 2026-04-30 06:01 | 31.47130 | 120.71475 | 9723 ft | 299 kts | 110° |
| 2026-04-30 06:01 | 31.46441 | 120.73765 | 9465 ft | 290 kts | 110° |
| 2026-04-30 06:02 | 31.45776 | 120.75976 | 9211 ft | 282 kts | 109° |
| 2026-04-30 06:02 | 31.45125 | 120.78138 | 8959 ft | 283 kts | 109° |
| 2026-04-30 06:02 | 31.44425 | 120.80459 | 8727 ft | 303 kts | 109° |
| 2026-04-30 06:02 | 31.43701 | 120.82859 | 8491 ft | 317 kts | 109° |
| 2026-04-30 06:03 | 31.42943 | 120.85375 | 8231 ft | 329 kts | 108° |
| 2026-04-30 06:03 | 31.42178 | 120.87913 | 7968 ft | 321 kts | 108° |
| 2026-04-30 06:03 | 31.41444 | 120.90339 | 7690 ft | 306 kts | 108° |
| 2026-04-30 06:03 | 31.40743 | 120.92654 | 7416 ft | 294 kts | 108° |
| 2026-04-30 06:04 | 31.40066 | 120.94893 | 7159 ft | 283 kts | 108° |
| 2026-04-30 06:04 | 31.39405 | 120.97070 | 6901 ft | 274 kts | 108° |
| 2026-04-30 06:04 | 31.38761 | 120.99189 | 6650 ft | 274 kts | 108° |
| 2026-04-30 06:05 | 31.37477 | 121.03409 | 6154 ft | 272 kts | 108° |
| 2026-04-30 06:05 | 31.36832 | 121.05527 | 5902 ft | 271 kts | 108° |
| 2026-04-30 06:05 | 31.36204 | 121.07591 | 5655 ft | 270 kts | 108° |
| 2026-04-30 06:05 | 31.35566 | 121.09685 | 5404 ft | 268 kts | 107° |
| 2026-04-30 06:06 | 31.34929 | 121.11762 | 5153 ft | 267 kts | 108° |
| 2026-04-30 06:06 | 31.34291 | 121.13812 | 4904 ft | 266 kts | 108° |
| 2026-04-30 06:06 | 31.33649 | 121.15880 | 4654 ft | 265 kts | 108° |
| 2026-04-30 06:06 | 31.33012 | 121.17928 | 4405 ft | 264 kts | 108° |
| 2026-04-30 06:07 | 31.32368 | 121.19930 | 4156 ft | 264 kts | 113° |
| 2026-04-30 06:07 | 31.31178 | 121.21571 | 3914 ft | 265 kts | 146° |
| 2026-04-30 06:07 | 31.29423 | 121.22289 | 3681 ft | 263 kts | 177° |
| 2026-04-30 06:07 | 31.27578 | 121.22330 | 3448 ft | 262 kts | 178° |
| 2026-04-30 06:08 | 31.25714 | 121.22425 | 3198 ft | 262 kts | 178° |
| 2026-04-30 06:08 | 31.23873 | 121.22522 | 2953 ft | 262 kts | 178° |
| 2026-04-30 06:08 | 31.22003 | 121.22628 | 2701 ft | 262 kts | 178° |
| 2026-04-30 06:08 | 31.20152 | 121.22732 | 2459 ft | 262 kts | 178° |
| 2026-04-30 06:09 | 31.18315 | 121.22833 | 2230 ft | 262 kts | 178° |
| 2026-04-30 06:09 | 31.16484 | 121.22935 | 1995 ft | 261 kts | 178° |
| 2026-04-30 06:09 | 31.14635 | 121.23037 | 1821 ft | 258 kts | 179° |
| 2026-04-30 06:09 | 31.12858 | 121.23134 | 1798 ft | 248 kts | 179° |
| 2026-04-30 06:10 | 31.11142 | 121.23228 | 1793 ft | 239 kts | 179° |
| 2026-04-30 06:10 | 31.09462 | 121.23320 | 1798 ft | 240 kts | 179° |
| 2026-04-30 06:10 | 31.07756 | 121.23414 | 1803 ft | 246 kts | 179° |
| 2026-04-30 06:10 | 31.05983 | 121.23511 | 1805 ft | 252 kts | 179° |
| 2026-04-30 06:11 | 31.04203 | 121.23608 | 1805 ft | 257 kts | 179° |
| 2026-04-30 06:11 | 31.02383 | 121.23724 | 1801 ft | 258 kts | 173° |
| 2026-04-30 06:11 | 31.00776 | 121.24525 | 1800 ft | 242 kts | 138° |
| 2026-04-30 06:11 | 30.99912 | 121.26120 | 1804 ft | 224 kts | 100° |
| 2026-04-30 06:12 | 31.00049 | 121.27826 | 1814 ft | 202 kts | 60° |
| 2026-04-30 06:12 | 31.00799 | 121.29186 | 1826 ft | 203 kts | 52° |
| 2026-04-30 06:12 | 31.01607 | 121.30572 | 1807 ft | 207 kts | 52° |
| 2026-04-30 06:12 | 31.02440 | 121.31999 | 1804 ft | 210 kts | 52° |
| 2026-04-30 06:13 | 31.03271 | 121.33424 | 1804 ft | 211 kts | 52° |
| 2026-04-30 06:13 | 31.04009 | 121.34573 | 1782 ft | 196 kts | 39° |
| 2026-04-30 06:13 | 31.04165 | 121.34727 | 1776 ft | 192 kts | 33° |
| 2026-04-30 06:13 | 31.05351 | 121.35088 | 1788 ft | 164 kts | 347° |
| 2026-04-30 06:14 | 31.06368 | 121.34652 | 1796 ft | 148 kts | 342° |
| 2026-04-30 06:14 | 31.07363 | 121.34415 | 1805 ft | 139 kts | 349° |
| 2026-04-30 06:14 | 31.08321 | 121.34283 | 1800 ft | 136 kts | 352° |
| 2026-04-30 06:14 | 31.09281 | 121.34202 | 1783 ft | 135 kts | 354° |
| 2026-04-30 06:15 | 31.10205 | 121.34139 | 1607 ft | 127 kts | 354° |
| 2026-04-30 06:15 | 31.11089 | 121.34090 | 1455 ft | 127 kts | 354° |
| 2026-04-30 06:15 | 31.11987 | 121.34040 | 1297 ft | 123 kts | 354° |
| 2026-04-30 06:15 | 31.12836 | 121.33995 | 1124 ft | 118 kts | 354° |
| 2026-04-30 06:16 | 31.13666 | 121.33951 | 959 ft | 118 kts | 355° |
| 2026-04-30 06:16 | 31.14524 | 121.33906 | 797 ft | 122 kts | 355° |
| 2026-04-30 06:16 | 31.15386 | 121.33859 | 627 ft | 122 kts | 355° |
| 2026-04-30 06:16 | 31.16251 | 121.33813 | 458 ft | 122 kts | 354° |
| 2026-04-30 06:17 | 31.17104 | 121.33768 | 282 ft | 123 kts | 355° |
| 2026-04-30 06:17 | 31.17972 | 121.33731 | 110 ft | 121 kts | 355° |
| 2026-04-30 06:17 | 31.18808 | 121.33683 | 21 ft | 108 kts | 354° |
| 2026-04-30 06:17 | 31.19443 | 121.33649 | 13 ft | 58 kts | 356° |
| 2026-04-30 06:18 | 31.19800 | 121.33631 | 16 ft | 42 kts | 357° |
| 2026-04-30 06:18 | 31.19874 | 121.33555 | 16 ft | 15 kts | 269° |
| 2026-04-30 06:18 | 31.19854 | 121.33436 | 17 ft | 16 kts | 216° |
| 2026-04-30 06:18 | 31.19819 | 121.33310 | 17 ft | 17 kts | 267° |
| 2026-04-30 06:19 | 31.19815 | 121.33154 | 17 ft | 18 kts | 267° |
| 2026-04-30 06:19 | 31.19809 | 121.33073 | 17 ft | 9 kts | 241° |
| 2026-04-30 06:19 | 31.19742 | 121.33050 | 17 ft | 11 kts | 214° |
| 2026-04-30 06:19 | 31.19728 | 121.32951 | 17 ft | 13 kts | 268° |
| 2026-04-30 06:20 | 31.19727 | 121.32827 | 17 ft | 16 kts | 270° |
| 2026-04-30 06:20 | 31.19714 | 121.32684 | 17 ft | 17 kts | 241° |
| 2026-04-30 06:20 | 31.19699 | 121.32622 | 17 ft | 10 kts | 312° |
| 2026-04-30 06:20 | 31.19749 | 121.32550 | 17 ft | 12 kts | 309° |
| 2026-04-30 06:21 | 31.19770 | 121.32521 | 17 ft | 0 kts | 309° |